Time;durP1;ratioP1;P1;durP2;ratioP2;P2;SDS_P1;SDS_P2;PMS_P1;PMS_P2;Temp;Humidity;BMP_temperature;BMP_pressure;BME280_temperature;BME280_humidity;BME280_pressure;Samples;Min_cycle;Max_cycle;Signal;HPM_P1;HPM_P2
2022/10/25 00:00:49;;;;;;;9.75;1.30;;;13.40;99.90;;;;;;5130201;28;20019;-49
2022/10/25 00:03:15;;;;;;;8.98;1.20;;;13.40;99.90;;;;;;5131794;27;20102;-48
2022/10/25 00:05:41;;;;;;;10.75;1.42;;;13.40;99.90;;;;;;5131984;28;20015;-53
2022/10/25 00:08:07;;;;;;;10.38;1.35;;;13.40;99.90;;;;;;5116921;28;20055;-50
2022/10/25 00:10:34;;;;;;;10.23;1.50;;;13.40;99.90;;;;;;5131793;27;20069;-47
2022/10/25 00:13:00;;;;;;;9.65;1.30;;;13.40;99.90;;;;;;5131733;28;20066;-53
2022/10/25 00:15:25;;;;;;;11.90;1.60;;;13.40;99.90;;;;;;5131675;28;20073;-50
2022/10/25 00:17:51;;;;;;;7.88;1.23;;;13.30;99.90;;;;;;5131857;28;20051;-48
2022/10/25 00:20:18;;;;;;;8.27;1.13;;;13.30;99.90;;;;;;5131644;28;20402;-55
2022/10/25 00:22:43;;;;;;;10.63;2.20;;;13.30;99.90;;;;;;5131489;28;20429;-58
2022/10/25 00:25:10;;;;;;;7.30;1.38;;;13.20;99.90;;;;;;5131443;27;20031;-49
2022/10/25 00:27:36;;;;;;;10.70;1.30;;;13.20;99.90;;;;;;5131512;28;20084;-48
2022/10/25 00:30:03;;;;;;;9.15;1.48;;;13.10;99.90;;;;;;5121901;28;20023;-51
2022/10/25 00:32:28;;;;;;;16.48;2.42;;;13.00;99.90;;;;;;5131114;27;20054;-54
2022/10/25 00:34:54;;;;;;;10.57;1.40;;;13.00;99.90;;;;;;5123900;28;20388;-49
2022/10/25 00:37:19;;;;;;;10.07;1.10;;;13.00;99.90;;;;;;5110163;28;20031;-53
2022/10/25 00:39:46;;;;;;;9.55;1.48;;;12.90;99.90;;;;;;5092932;28;20055;-54
2022/10/25 00:42:20;;;;;;;11.00;1.50;;;12.90;99.90;;;;;;5124557;27;20420;-52
2022/10/25 00:44:55;;;;;;;12.60;1.35;;;12.90;99.90;;;;;;5113052;28;20019;-47
2022/10/25 00:47:21;;;;;;;9.38;1.10;;;12.90;99.90;;;;;;5131293;28;20027;-49
2022/10/25 00:50:17;;;;;;;7.05;1.10;;;12.80;99.90;;;;;;5121781;28;20085;-56
2022/10/25 00:52:46;;;;;;;9.73;1.30;;;12.70;99.90;;;;;;5130697;27;20106;-53
2022/10/25 00:55:14;;;;;;;5.50;1.20;;;12.70;99.90;;;;;;5131326;27;20498;-50
2022/10/25 00:58:06;;;;;;;8.52;1.20;;;12.70;99.90;;;;;;5131477;27;20388;-53
2022/10/25 01:00:32;;;;;;;8.98;1.30;;;12.60;99.90;;;;;;5129252;28;20028;-49
2022/10/25 01:02:58;;;;;;;11.02;1.45;;;12.50;99.90;;;;;;5131338;27;20021;-59
2022/10/25 01:05:23;;;;;;;7.65;1.33;;;12.50;99.90;;;;;;5133737;27;20019;-56
2022/10/25 01:07:50;;;;;;;8.57;1.23;;;12.50;99.90;;;;;;5121835;27;20434;-55
2022/10/25 01:10:16;;;;;;;5.85;1.30;;;12.40;99.90;;;;;;5133785;27;20513;-57
2022/10/25 01:12:41;;;;;;;5.43;1.20;;;12.30;99.90;;;;;;5135248;27;20019;-48
2022/10/25 01:15:07;;;;;;;11.13;2.47;;;12.30;99.90;;;;;;5134901;27;20023;-46
2022/10/25 01:18:14;;;;;;;9.50;3.05;;;12.20;99.90;;;;;;5134897;27;20100;-50
2022/10/25 01:21:12;;;;;;;11.60;1.50;;;12.20;99.90;;;;;;5134993;27;20019;-46
2022/10/25 01:23:38;;;;;;;5.72;1.10;;;12.10;99.90;;;;;;5092097;27;20043;-45
2022/10/25 01:26:32;;;;;;;6.28;1.20;;;12.10;99.90;;;;;;5134655;27;20038;-46
2022/10/25 01:29:15;;;;;;;8.98;1.42;;;12.00;99.90;;;;;;5131836;27;20042;-54
2022/10/25 01:31:49;;;;;;;8.18;1.15;;;12.00;99.90;;;;;;5127612;27;20038;-47
2022/10/25 01:34:54;;;;;;;7.97;1.02;;;12.00;99.90;;;;;;5134561;27;20015;-49
2022/10/25 01:37:31;;;;;;;7.80;1.05;;;12.00;99.90;;;;;;5092822;27;20064;-47
2022/10/25 01:40:20;;;;;;;7.55;1.10;;;11.90;99.90;;;;;;5105849;28;20102;-49
2022/10/25 01:43:07;;;;;;;9.48;1.23;;;11.90;99.90;;;;;;5119377;27;20035;-52
2022/10/25 01:45:59;;;;;;;5.70;1.02;;;11.80;99.90;;;;;;5099268;27;20025;-50
2022/10/25 01:48:30;;;;;;;9.68;1.23;;;11.80;99.90;;;;;;5130868;27;20118;-50
2022/10/25 01:51:05;;;;;;;8.70;1.45;;;11.80;99.90;;;;;;5134082;27;20479;-47
2022/10/25 01:53:30;;;;;;;8.70;1.35;;;11.70;99.90;;;;;;5134214;27;20148;-48
2022/10/25 01:55:59;;;;;;;5.57;0.98;;;11.70;99.90;;;;;;5133979;27;20485;-51
2022/10/25 01:58:38;;;;;;;14.77;1.00;;;11.70;99.90;;;;;;5133987;27;20471;-48
2022/10/25 02:01:33;;;;;;;10.02;2.95;;;11.60;99.90;;;;;;5133964;27;20031;-48
2022/10/25 02:04:09;;;;;;;12.35;1.60;;;11.60;99.90;;;;;;5133772;27;20420;-50
2022/10/25 02:06:44;;;;;;;7.18;1.40;;;11.60;99.90;;;;;;5131214;27;20031;-48
2022/10/25 02:09:18;;;;;;;6.70;1.30;;;11.60;99.90;;;;;;5114806;27;20042;-46
2022/10/25 02:11:44;;;;;;;6.20;1.08;;;11.60;99.90;;;;;;5132470;27;20159;-48
2022/10/25 02:14:41;;;;;;;10.13;1.48;;;11.60;99.90;;;;;;5133220;27;20488;-49
2022/10/25 02:17:09;;;;;;;5.00;1.15;;;11.60;99.90;;;;;;5106629;27;20027;-51
2022/10/25 02:19:41;;;;;;;6.13;1.27;;;11.60;99.90;;;;;;5127462;27;20552;-49
2022/10/25 02:22:09;;;;;;;7.78;1.25;;;11.50;99.90;;;;;;5126326;27;20356;-47
2022/10/25 02:24:36;;;;;;;11.63;1.45;;;11.50;99.90;;;;;;5133347;27;20011;-51
2022/10/25 02:27:05;;;;;;;9.68;1.50;;;11.40;99.90;;;;;;5133334;27;20044;-53
2022/10/25 02:29:32;;;;;;;11.45;1.25;;;11.40;99.90;;;;;;5127519;27;20106;-47
2022/10/25 02:31:58;;;;;;;8.82;1.52;;;11.30;99.90;;;;;;5133451;27;20098;-47
2022/10/25 02:34:24;;;;;;;7.32;1.17;;;11.30;99.90;;;;;;5133222;27;20065;-50
2022/10/25 02:36:52;;;;;;;11.40;1.55;;;11.30;99.90;;;;;;5133237;27;20080;-51
2022/10/25 02:39:20;;;;;;;8.88;1.25;;;11.20;99.90;;;;;;5133007;27;20106;-48
2022/10/25 02:41:46;;;;;;;5.60;1.52;;;11.20;99.90;;;;;;5130294;27;20038;-48
2022/10/25 02:44:11;;;;;;;4.57;1.42;;;11.20;99.90;;;;;;5132998;27;20023;-55
2022/10/25 02:46:37;;;;;;;4.18;0.90;;;11.10;99.90;;;;;;5128298;27;20080;-47
2022/10/25 02:49:03;;;;;;;5.88;0.95;;;11.10;99.90;;;;;;5122663;27;20494;-50
2022/10/25 02:51:29;;;;;;;5.72;1.10;;;11.10;99.90;;;;;;5132651;27;20034;-52
2022/10/25 02:53:54;;;;;;;6.50;1.05;;;11.10;99.90;;;;;;5133011;27;20023;-50
2022/10/25 02:56:21;;;;;;;3.83;1.08;;;11.10;99.90;;;;;;5132765;27;20031;-47
2022/10/25 02:58:49;;;;;;;5.90;1.27;;;11.10;99.90;;;;;;5132769;27;20007;-47
2022/10/25 03:01:16;;;;;;;6.30;1.23;;;11.10;99.90;;;;;;5132754;27;20019;-48
2022/10/25 03:03:42;;;;;;;4.57;1.10;;;11.10;99.90;;;;;;5132480;27;20019;-49
2022/10/25 03:06:09;;;;;;;9.57;1.35;;;11.10;99.90;;;;;;5132488;27;20115;-47
2022/10/25 03:08:35;;;;;;;5.07;1.25;;;11.00;99.90;;;;;;5132215;27;20056;-52
2022/10/25 03:11:01;;;;;;;6.28;1.48;;;11.00;99.90;;;;;;5129697;27;20027;-48
2022/10/25 03:13:27;;;;;;;6.63;1.17;;;11.00;99.90;;;;;;5127014;27;20091;-49
2022/10/25 03:15:53;;;;;;;8.23;1.30;;;11.00;99.90;;;;;;5132327;27;20023;-48
2022/10/25 03:18:18;;;;;;;7.50;1.20;;;10.90;99.90;;;;;;5127774;27;20019;-48
2022/10/25 03:20:44;;;;;;;6.10;1.20;;;10.90;99.90;;;;;;5115280;27;20035;-51
2022/10/25 03:23:10;;;;;;;7.47;1.05;;;10.90;99.90;;;;;;5132279;27;20023;-47
2022/10/25 03:25:36;;;;;;;6.95;1.25;;;10.90;99.90;;;;;;5113651;27;20551;-50
2022/10/25 03:28:02;;;;;;;6.15;1.13;;;10.90;99.90;;;;;;5131767;27;20031;-50
2022/10/25 03:30:29;;;;;;;8.13;1.65;;;10.80;99.90;;;;;;5132421;27;20058;-47
2022/10/25 03:32:55;;;;;;;4.45;1.17;;;10.80;99.90;;;;;;5132184;27;20019;-50
2022/10/25 03:35:21;;;;;;;12.43;1.60;;;10.80;99.90;;;;;;5132011;27;20027;-47
2022/10/25 03:37:48;;;;;;;5.53;1.15;;;10.80;99.90;;;;;;5131963;27;20026;-48
2022/10/25 03:40:14;;;;;;;10.50;1.55;;;10.80;99.90;;;;;;5132145;27;20015;-51
2022/10/25 03:42:39;;;;;;;9.55;1.35;;;10.80;99.90;;;;;;5117450;27;20399;-51
2022/10/25 03:45:05;;;;;;;10.73;1.27;;;10.80;99.90;;;;;;5131993;27;20019;-46
2022/10/25 03:47:31;;;;;;;7.20;1.80;;;10.80;99.90;;;;;;5131901;27;20042;-47
2022/10/25 03:49:56;;;;;;;12.32;1.80;;;10.80;99.90;;;;;;5111025;28;20025;-48
2022/10/25 03:52:22;;;;;;;6.18;1.30;;;10.80;99.90;;;;;;5111691;28;20107;-50
2022/10/25 03:54:47;;;;;;;10.90;1.60;;;10.80;99.90;;;;;;5111231;28;20494;-50
2022/10/25 03:57:13;;;;;;;12.93;1.33;;;10.80;99.90;;;;;;5111482;28;20053;-48
2022/10/25 03:59:39;;;;;;;8.30;1.58;;;10.90;99.90;;;;;;5111544;28;20069;-49
2022/10/25 04:02:04;;;;;;;12.52;1.70;;;10.90;99.90;;;;;;5111168;28;20095;-50
2022/10/25 04:04:30;;;;;;;8.88;1.63;;;11.00;99.90;;;;;;5111222;28;20031;-51
2022/10/25 04:06:55;;;;;;;12.18;1.85;;;11.10;99.90;;;;;;5110969;28;20097;-47
2022/10/25 04:09:21;;;;;;;8.38;1.20;;;11.20;99.90;;;;;;5111502;28;20076;-51
2022/10/25 04:11:47;;;;;;;8.38;1.52;;;11.20;99.90;;;;;;5110897;28;20495;-50
2022/10/25 04:14:12;;;;;;;7.10;1.40;;;11.20;99.90;;;;;;5111279;28;20055;-48
2022/10/25 04:16:38;;;;;;;7.35;1.52;;;11.30;99.90;;;;;;5111303;28;20422;-52
2022/10/25 04:19:03;;;;;;;7.38;1.50;;;11.20;99.90;;;;;;5125506;28;20417;-50
2022/10/25 04:21:29;;;;;;;6.60;1.23;;;11.20;99.90;;;;;;5121660;28;20023;-47
2022/10/25 04:23:55;;;;;;;7.80;1.40;;;11.30;99.90;;;;;;5131483;28;20439;-48
2022/10/25 04:26:21;;;;;;;6.70;1.30;;;11.20;99.90;;;;;;5131827;28;20051;-53
2022/10/25 04:28:52;;;;;;;5.28;1.20;;;11.10;99.90;;;;;;5131630;28;20039;-50
2022/10/25 04:31:18;;;;;;;11.05;1.50;;;11.00;99.90;;;;;;5105824;28;20388;-47
2022/10/25 04:33:50;;;;;;;6.40;1.10;;;10.90;99.90;;;;;;5110975;28;20801;-53
2022/10/25 04:36:16;;;;;;;9.20;1.10;;;10.90;99.90;;;;;;5120328;28;20051;-47
2022/10/25 04:38:41;;;;;;;7.60;1.05;;;10.80;99.90;;;;;;5130121;27;20070;-47
2022/10/25 04:41:09;;;;;;;7.45;1.27;;;10.70;99.90;;;;;;5129521;27;20027;-47
2022/10/25 04:43:35;;;;;;;5.03;1.17;;;10.70;99.90;;;;;;5124565;27;20024;-47
2022/10/25 04:46:01;;;;;;;5.90;1.20;;;10.70;99.90;;;;;;5114630;28;20105;-47
2022/10/25 04:48:27;;;;;;;8.35;1.05;;;10.70;99.90;;;;;;5115629;27;20035;-47
2022/10/25 04:50:52;;;;;;;4.28;1.00;;;10.70;99.90;;;;;;5121285;27;20052;-47
2022/10/25 04:53:18;;;;;;;4.57;0.95;;;10.80;99.90;;;;;;5114594;28;20434;-47
2022/10/25 04:55:43;;;;;;;4.18;0.90;;;10.80;99.90;;;;;;5119451;27;20114;-48
2022/10/25 04:58:09;;;;;;;4.93;0.93;;;10.80;99.90;;;;;;5114610;28;20031;-47
2022/10/25 05:00:35;;;;;;;4.72;1.30;;;10.90;99.90;;;;;;5114448;28;20077;-46
2022/10/25 05:03:01;;;;;;;8.05;1.35;;;10.90;99.90;;;;;;5114657;28;20387;-46
2022/10/25 05:05:26;;;;;;;4.45;1.20;;;10.90;99.90;;;;;;5114494;28;20073;-46
2022/10/25 05:07:52;;;;;;;4.57;1.10;;;10.90;99.90;;;;;;5114210;28;20055;-47
2022/10/25 05:10:18;;;;;;;5.55;1.20;;;10.90;99.90;;;;;;5114250;28;20104;-46
2022/10/25 05:12:43;;;;;;;4.85;1.23;;;10.90;99.90;;;;;;5113933;28;20027;-49
2022/10/25 05:15:09;;;;;;;6.93;1.10;;;10.80;99.90;;;;;;5113963;28;20050;-48
2022/10/25 05:17:35;;;;;;;11.90;1.27;;;10.80;99.90;;;;;;5112338;27;20019;-50
2022/10/25 05:20:01;;;;;;;10.93;1.65;;;10.80;99.90;;;;;;5134880;27;20046;-46
2022/10/25 05:22:28;;;;;;;7.05;1.25;;;10.80;99.90;;;;;;5134197;27;20023;-48
2022/10/25 05:24:53;;;;;;;3.70;1.20;;;10.80;99.90;;;;;;5134178;27;20031;-48
2022/10/25 05:27:19;;;;;;;7.72;1.60;;;10.80;99.90;;;;;;5134328;27;20030;-48
2022/10/25 05:29:46;;;;;;;10.40;2.08;;;10.80;99.90;;;;;;5134639;27;20110;-49
2022/10/25 05:32:11;;;;;;;3.30;0.88;;;10.70;99.90;;;;;;5120972;27;20015;-50
2022/10/25 05:34:37;;;;;;;5.20;0.95;;;10.80;99.90;;;;;;5127577;27;20030;-48
2022/10/25 05:37:03;;;;;;;6.80;1.45;;;10.80;99.90;;;;;;5132189;27;20411;-48
2022/10/25 05:39:28;;;;;;;8.05;1.33;;;10.90;99.90;;;;;;5130836;27;20027;-48
2022/10/25 05:41:54;;;;;;;4.15;1.02;;;10.80;99.90;;;;;;5128503;27;20019;-46
2022/10/25 05:44:20;;;;;;;4.63;1.40;;;10.90;99.90;;;;;;5125129;27;20028;-46
2022/10/25 05:46:45;;;;;;;4.00;1.27;;;10.90;99.90;;;;;;5114601;27;20036;-47
2022/10/25 05:49:12;;;;;;;4.15;1.15;;;10.90;99.90;;;;;;5113644;28;20043;-47
2022/10/25 05:51:38;;;;;;;7.53;1.30;;;10.90;99.90;;;;;;5113098;28;20090;-48
2022/10/25 05:54:06;;;;;;;6.80;1.20;;;11.00;99.90;;;;;;5113552;28;20055;-51
2022/10/25 05:56:33;;;;;;;7.38;1.50;;;11.00;99.90;;;;;;5113153;28;20045;-53
2022/10/25 05:59:17;;;;;;;5.15;1.75;;;11.00;99.90;;;;;;5113450;28;20053;-47
2022/10/25 06:01:45;;;;;;;10.32;1.80;;;10.90;99.90;;;;;;5113224;28;20020;-47
2022/10/25 06:04:12;;;;;;;5.53;1.35;;;10.80;99.90;;;;;;5113244;28;20045;-49
2022/10/25 06:06:38;;;;;;;6.70;1.70;;;10.90;99.90;;;;;;5113061;28;20039;-49
2022/10/25 06:09:05;;;;;;;7.55;1.35;;;10.80;99.90;;;;;;5113272;28;20032;-47
2022/10/25 06:11:31;;;;;;;11.68;1.75;;;10.80;99.90;;;;;;5120440;27;20395;-47
2022/10/25 06:13:57;;;;;;;9.00;2.17;;;10.90;99.90;;;;;;5113005;28;20511;-50
2022/10/25 06:16:23;;;;;;;8.25;1.70;;;10.80;99.90;;;;;;5112891;28;20058;-47
2022/10/25 06:18:49;;;;;;;6.18;1.25;;;10.90;99.90;;;;;;5114863;27;20023;-52
2022/10/25 06:21:19;;;;;;;4.85;1.48;;;10.90;99.90;;;;;;5124909;27;20048;-47
2022/10/25 06:23:46;;;;;;;5.82;1.92;;;11.00;99.90;;;;;;5112646;28;20027;-50
2022/10/25 06:26:15;;;;;;;14.55;2.22;;;11.10;99.90;;;;;;5112730;28;20019;-49
2022/10/25 06:28:40;;;;;;;7.38;1.63;;;11.10;99.90;;;;;;5112869;28;20039;-50
2022/10/25 06:31:11;;;;;;;10.80;2.20;;;11.20;99.90;;;;;;5112605;28;20065;-49
2022/10/25 06:33:38;;;;;;;8.82;1.75;;;11.30;99.90;;;;;;5112817;28;20035;-50
2022/10/25 06:36:11;;;;;;;8.48;1.70;;;11.30;99.90;;;;;;5112425;28;20448;-48
2022/10/25 06:38:37;;;;;;;7.50;1.40;;;11.30;99.90;;;;;;5121028;27;20069;-48
2022/10/25 06:41:05;;;;;;;5.15;1.33;;;11.40;99.90;;;;;;5115477;27;20478;-47
2022/10/25 06:43:33;;;;;;;5.28;1.50;;;11.40;99.90;;;;;;5112647;28;20111;-51
2022/10/25 06:46:11;;;;;;;5.97;1.42;;;11.50;99.90;;;;;;5112255;28;20031;-50
2022/10/25 06:48:36;;;;;;;6.20;1.67;;;11.50;99.90;;;;;;5112344;28;20039;-52
2022/10/25 06:51:08;;;;;;;7.45;1.77;;;11.60;99.90;;;;;;5112070;28;20018;-51
2022/10/25 06:53:34;;;;;;;6.72;1.35;;;11.70;99.90;;;;;;5093994;28;20520;-50
2022/10/25 06:56:01;;;;;;;12.38;1.80;;;11.70;99.90;;;;;;5112300;28;20556;-52
2022/10/25 06:58:28;;;;;;;8.90;1.63;;;11.80;99.90;;;;;;5115143;27;20407;-46
2022/10/25 07:00:54;;;;;;;9.23;1.75;;;11.80;99.90;;;;;;5111929;28;20024;-47
2022/10/25 07:03:28;;;;;;;6.72;1.70;;;11.90;99.90;;;;;;5110831;28;20030;-50
2022/10/25 07:05:54;;;;;;;8.82;1.90;;;11.90;99.90;;;;;;5129119;27;20048;-50
2022/10/25 07:08:20;;;;;;;7.72;1.70;;;11.90;99.90;;;;;;5129981;27;20047;-48
2022/10/25 07:10:54;;;;;;;7.60;2.22;;;11.90;99.90;;;;;;5122660;27;20015;-47
2022/10/25 07:13:20;;;;;;;14.60;2.47;;;11.90;99.90;;;;;;5126141;27;20023;-46
2022/10/25 07:15:46;;;;;;;5.18;2.05;;;12.00;99.90;;;;;;5124759;27;20109;-49
2022/10/25 07:18:12;;;;;;;9.10;1.85;;;12.00;99.90;;;;;;5129287;27;20114;-48
2022/10/25 07:20:37;;;;;;;4.93;1.65;;;12.00;99.90;;;;;;5130997;27;20049;-51
2022/10/25 07:23:03;;;;;;;6.20;1.98;;;12.00;99.90;;;;;;5123413;27;20055;-52
2022/10/25 07:25:29;;;;;;;7.78;1.65;;;12.10;99.90;;;;;;5116886;27;20107;-50
2022/10/25 07:27:55;;;;;;;5.50;2.60;;;12.20;99.90;;;;;;5111481;28;20039;-47
2022/10/25 07:30:21;;;;;;;5.40;2.17;;;12.20;99.90;;;;;;5122065;27;20050;-49
2022/10/25 07:32:47;;;;;;;5.50;1.98;;;12.30;99.90;;;;;;5123481;27;20483;-48
2022/10/25 07:35:13;;;;;;;7.38;1.90;;;12.30;99.90;;;;;;5115114;27;20128;-50
2022/10/25 07:37:38;;;;;;;9.48;1.63;;;12.50;99.90;;;;;;5111278;28;20475;-47
2022/10/25 07:40:04;;;;;;;8.13;1.60;;;12.60;99.90;;;;;;5110783;28;20489;-54
2022/10/25 07:42:30;;;;;;;8.45;1.77;;;12.70;99.90;;;;;;5111335;28;20034;-47
2022/10/25 07:44:56;;;;;;;12.45;1.33;;;12.80;99.90;;;;;;5110592;28;20023;-47
2022/10/25 07:47:21;;;;;;;6.07;1.50;;;12.90;99.90;;;;;;5110762;28;20468;-49
2022/10/25 07:49:47;;;;;;;11.40;1.52;;;13.00;99.90;;;;;;5111703;28;20080;-49
2022/10/25 07:52:12;;;;;;;13.75;1.55;;;13.10;99.90;;;;;;5104349;28;20514;-49
2022/10/25 07:54:38;;;;;;;7.03;1.65;;;13.20;99.90;;;;;;5106947;28;20043;-49
2022/10/25 07:57:05;;;;;;;12.13;1.48;;;13.30;99.90;;;;;;5100697;28;20024;-51
2022/10/25 07:59:31;;;;;;;7.55;1.38;;;13.50;99.90;;;;;;5091811;28;20095;-51
2022/10/25 08:01:56;;;;;;;11.93;1.70;;;13.80;99.90;;;;;;5095645;28;20041;-51
2022/10/25 08:04:22;;;;;;;9.63;1.50;;;14.10;99.90;;;;;;5103146;28;20024;-48
2022/10/25 08:06:48;;;;;;;6.53;1.23;;;14.60;99.90;;;;;;5071857;28;20422;-47
2022/10/25 08:09:13;;;;;;;7.07;1.45;;;15.00;99.90;;;;;;5105089;28;20030;-53
2022/10/25 08:11:39;;;;;;;5.55;1.65;;;15.10;99.90;;;;;;5087524;28;20028;-47
2022/10/25 08:14:04;;;;;;;5.72;1.77;;;15.40;99.90;;;;;;5110746;28;20502;-52
2022/10/25 08:16:30;;;;;;;9.98;1.90;;;15.60;99.90;;;;;;5114899;28;20027;-47
2022/10/25 08:18:56;;;;;;;4.82;1.40;;;15.70;99.90;;;;;;5120198;27;20020;-48
2022/10/25 08:21:21;;;;;;;6.72;1.38;;;15.90;99.90;;;;;;5111910;28;20055;-52
2022/10/25 08:23:47;;;;;;;8.40;1.13;;;16.10;99.90;;;;;;5111665;28;20020;-48
2022/10/25 08:26:12;;;;;;;3.70;1.08;;;16.40;99.90;;;;;;5110411;28;20073;-51
2022/10/25 08:28:38;;;;;;;6.65;1.17;;;16.50;99.90;;;;;;5113874;28;20044;-49
2022/10/25 08:31:04;;;;;;;6.70;1.50;;;16.40;99.90;;;;;;5114289;28;20023;-49
2022/10/25 08:33:31;;;;;;;7.45;1.10;;;16.20;99.90;;;;;;5115279;28;20107;-47
2022/10/25 08:36:02;;;;;;;7.85;1.60;;;15.90;99.90;;;;;;5114033;28;20012;-49
2022/10/25 08:38:28;;;;;;;7.53;1.45;;;15.70;99.90;;;;;;5104288;28;20082;-46
2022/10/25 08:41:18;;;;;;;11.43;4.78;;;15.50;99.90;;;;;;5114992;28;20463;-46
2022/10/25 08:44:22;;;;;;;15.35;6.75;;;15.30;99.90;;;;;;5105398;28;20061;-47
2022/10/25 08:47:06;;;;;;;11.38;6.05;;;15.20;99.90;;;;;;5030182;28;20022;-50
2022/10/25 08:49:34;;;;;;;12.73;4.75;;;15.00;99.90;;;;;;5028959;28;20033;-51
2022/10/25 08:52:01;;;;;;;12.40;4.78;;;14.90;99.90;;;;;;5082919;27;20475;-49
2022/10/25 08:54:34;;;;;;;8.48;3.67;;;14.90;99.90;;;;;;5118248;27;20106;-48
2022/10/25 08:57:10;;;;;;;12.40;3.58;;;14.80;99.90;;;;;;5113203;28;20165;-51
2022/10/25 08:59:40;;;;;;;15.25;3.65;;;14.80;99.90;;;;;;5113794;28;20020;-52
2022/10/25 09:02:32;;;;;;;13.32;3.88;;;14.90;99.90;;;;;;5115401;27;20031;-48
2022/10/25 09:04:58;;;;;;;11.60;4.47;;;15.00;99.90;;;;;;5101763;28;20487;-47
2022/10/25 09:07:53;;;;;;;13.02;4.57;;;15.50;99.90;;;;;;5114416;27;20514;-51
2022/10/25 09:10:37;;;;;;;10.77;2.80;;;16.40;99.90;;;;;;5037376;28;20034;-50
2022/10/25 09:13:18;;;;;;;10.30;1.67;;;17.10;99.90;;;;;;5109400;28;20091;-50
2022/10/25 09:16:20;;;;;;;8.32;1.38;;;18.30;99.90;;;;;;5112790;28;20015;-48
2022/10/25 09:18:58;;;;;;;8.52;1.80;;;19.30;99.90;;;;;;5114101;27;20024;-50
2022/10/25 09:22:11;;;;;;;6.13;1.30;;;20.30;99.90;;;;;;5123792;27;20020;-51
2022/10/25 09:24:50;;;;;;;9.07;1.63;;;20.80;99.90;;;;;;5032051;28;20033;-50
2022/10/25 09:27:37;;;;;;;6.53;1.30;;;21.20;99.90;;;;;;5096936;27;20051;-54
2022/10/25 09:30:08;;;;;;;10.48;1.65;;;20.60;99.90;;;;;;5121679;27;20035;-48
2022/10/25 09:32:46;;;;;;;6.47;1.20;;;21.00;99.90;;;;;;5110262;28;20106;-51
2022/10/25 09:35:40;;;;;;;4.32;1.20;;;22.10;99.90;;;;;;5114520;27;20290;-52
2022/10/25 09:38:13;;;;;;;8.13;1.40;;;23.00;99.90;;;;;;5111571;27;20059;-50
2022/10/25 09:40:55;;;;;;;8.88;1.45;;;22.70;99.90;;;;;;5129548;27;20027;-51
2022/10/25 09:43:34;;;;;;;7.18;0.80;;;21.90;99.90;;;;;;5100752;28;20209;-58
2022/10/25 09:46:07;;;;;;;8.13;1.42;;;21.20;99.90;;;;;;5114301;27;20067;-55
2022/10/25 09:48:54;;;;;;;9.98;1.40;;;19.80;99.90;;;;;;5130205;27;20035;-55
2022/10/25 09:51:32;;;;;;;6.15;1.30;;;19.70;99.90;;;;;;5112567;27;20027;-53
2022/10/25 09:54:03;;;;;;;7.80;1.10;;;20.00;99.90;;;;;;5111081;28;20033;-53
2022/10/25 09:56:29;;;;;;;9.32;1.67;;;19.90;99.90;;;;;;5132884;27;20028;-54
2022/10/25 09:58:55;;;;;;;7.28;1.55;;;19.50;99.90;;;;;;5131362;27;20023;-53
2022/10/25 10:01:27;;;;;;;12.35;1.85;;;19.00;99.90;;;;;;5131539;27;20031;-52
2022/10/25 10:04:04;;;;;;;9.90;1.38;;;18.70;99.90;;;;;;5130277;27;20016;-53
2022/10/25 10:06:38;;;;;;;10.05;1.75;;;19.00;99.90;;;;;;5126787;27;20072;-52
2022/10/25 10:09:06;;;;;;;6.07;1.52;;;18.80;99.90;;;;;;5130606;27;20168;-52
2022/10/25 10:11:34;;;;;;;6.55;1.20;;;18.40;99.90;;;;;;5129957;27;20071;-49
2022/10/25 10:14:13;;;;;;;6.88;1.73;;;18.10;99.90;;;;;;5131068;27;20031;-53
2022/10/25 10:16:46;;;;;;;6.97;1.40;;;18.10;99.90;;;;;;5126183;27;20027;-50
2022/10/25 10:19:20;;;;;;;10.15;3.28;;;18.50;99.90;;;;;;5128980;27;20439;-52
2022/10/25 10:21:58;;;;;;;8.02;2.00;;;19.30;99.90;;;;;;5128798;27;20531;-56
2022/10/25 10:24:33;;;;;;;7.43;2.07;;;20.70;99.90;;;;;;5131138;27;20024;-53
2022/10/25 10:27:12;;;;;;;9.88;2.28;;;21.20;99.90;;;;;;5132506;27;20255;-55
2022/10/25 10:30:08;;;;;;;8.27;1.55;;;21.60;99.90;;;;;;5126832;27;20080;-56
2022/10/25 10:32:36;;;;;;;9.00;1.42;;;21.90;99.90;;;;;;5121739;27;20023;-51
2022/10/25 10:35:04;;;;;;;8.13;1.20;;;21.60;99.90;;;;;;5129021;27;20055;-52
2022/10/25 10:37:32;;;;;;;7.33;1.30;;;20.30;99.90;;;;;;5116725;27;20028;-52
2022/10/25 10:40:03;;;;;;;7.38;1.15;;;19.20;99.90;;;;;;5112068;28;20027;-53
2022/10/25 10:42:28;;;;;;;8.40;1.50;;;18.40;99.90;;;;;;5109860;28;20031;-56
2022/10/25 10:45:01;;;;;;;8.70;1.30;;;18.10;99.90;;;;;;5111066;28;20022;-50
2022/10/25 10:47:33;;;;;;;10.07;1.30;;;17.80;99.90;;;;;;5112255;28;20026;-51
2022/10/25 10:50:00;;;;;;;5.70;1.10;;;17.40;99.90;;;;;;5112171;28;20050;-56
2022/10/25 10:52:38;;;;;;;9.43;1.33;;;17.20;99.90;;;;;;5105869;28;20016;-57
2022/10/25 10:55:04;;;;;;;8.05;1.38;;;17.20;99.90;;;;;;5111125;28;20534;-54
2022/10/25 10:57:34;;;;;;;10.65;2.40;;;17.70;99.90;;;;;;5112424;28;20074;-56
2022/10/25 11:00:01;;;;;;;9.88;2.20;;;18.70;99.90;;;;;;5112360;28;20023;-56
2022/10/25 11:02:40;;;;;;;8.43;3.17;;;19.00;99.90;;;;;;5081220;28;20077;-55
2022/10/25 11:05:29;;;;;;;12.02;2.95;;;19.20;99.90;;;;;;5111867;28;20038;-56
2022/10/25 11:07:58;;;;;;;6.00;1.63;;;18.90;99.90;;;;;;5111659;28;20126;-51
2022/10/25 11:10:29;;;;;;;7.38;1.40;;;19.00;99.90;;;;;;5111643;28;20027;-53
2022/10/25 11:13:19;;;;;;;11.63;1.63;;;19.00;99.90;;;;;;5111972;28;20030;-53
2022/10/25 11:16:26;;;;;;;10.40;2.03;;;18.60;99.90;;;;;;5103212;28;20042;-53
2022/10/25 11:19:06;;;;;;;7.68;1.67;;;18.10;99.90;;;;;;5083569;27;20032;-51
2022/10/25 11:21:51;;;;;;;11.85;1.95;;;17.70;99.90;;;;;;5127331;27;20081;-56
2022/10/25 11:24:52;;;;;;;7.10;1.65;;;18.30;99.90;;;;;;5117211;27;20030;-53
2022/10/25 11:27:29;;;;;;;7.88;1.80;;;19.30;99.90;;;;;;5098276;28;20023;-58
2022/10/25 11:30:07;;;;;;;6.05;1.35;;;20.60;99.90;;;;;;5111481;28;20479;-54
2022/10/25 11:32:39;;;;;;;4.53;1.08;;;22.00;99.90;;;;;;5111780;28;20122;-54
2022/10/25 11:35:32;;;;;;;6.93;1.20;;;22.70;99.90;;;;;;5111529;28;20024;-54
2022/10/25 11:38:11;;;;;;;8.38;1.50;;;23.20;99.90;;;;;;5111682;28;20157;-51
2022/10/25 11:40:51;;;;;;;4.95;1.50;;;24.10;99.90;;;;;;5111303;28;20468;-57
2022/10/25 11:43:55;;;;;;;9.95;1.70;;;24.70;99.90;;;;;;5111530;28;20034;-58
2022/10/25 11:46:30;;;;;;;8.95;1.38;;;24.90;99.40;;;;;;5111431;28;20047;-57
2022/10/25 11:49:31;;;;;;;7.78;1.40;;;24.70;98.70;;;;;;5110898;28;20046;-57
2022/10/25 11:52:00;;;;;;;6.57;1.35;;;24.80;98.90;;;;;;5094719;28;20040;-50
2022/10/25 11:54:50;;;;;;;6.00;1.90;;;25.20;97.90;;;;;;5111311;28;20039;-51
2022/10/25 11:57:33;;;;;;;11.07;2.95;;;25.10;98.20;;;;;;5112334;27;20456;-57
2022/10/25 12:00:18;;;;;;;7.72;1.40;;;24.00;96.30;;;;;;5121462;27;20031;-56
2022/10/25 12:02:58;;;;;;;4.97;1.23;;;22.90;99.00;;;;;;5111152;28;20016;-51
2022/10/25 12:05:36;;;;;;;6.60;1.20;;;22.00;99.90;;;;;;5111195;28;20480;-53
2022/10/25 12:08:11;;;;;;;6.40;2.10;;;20.70;99.90;;;;;;5102601;28;20126;-53
2022/10/25 12:10:41;;;;;;;6.72;1.90;;;19.70;99.90;;;;;;5111162;28;20040;-52
2022/10/25 12:13:12;;;;;;;8.57;1.38;;;19.20;99.90;;;;;;5102782;28;20098;-56
2022/10/25 12:15:41;;;;;;;7.03;1.33;;;19.00;99.90;;;;;;5111116;28;20030;-54
2022/10/25 12:18:16;;;;;;;6.72;1.25;;;18.90;99.90;;;;;;5110989;28;20019;-58
2022/10/25 12:20:45;;;;;;;6.25;1.85;;;19.00;99.90;;;;;;5119103;28;20028;-56
2022/10/25 12:23:15;;;;;;;10.98;2.03;;;19.60;99.90;;;;;;5122414;28;20467;-50
2022/10/25 12:25:46;;;;;;;10.30;1.92;;;20.20;99.90;;;;;;5126425;28;20023;-48
2022/10/25 12:28:49;;;;;;;7.57;1.63;;;20.60;99.90;;;;;;5127771;28;20038;-49
2022/10/25 12:31:26;;;;;;;5.07;1.50;;;20.50;99.90;;;;;;5126585;28;20487;-54
2022/10/25 12:33:58;;;;;;;11.48;2.33;;;20.10;99.90;;;;;;5129008;28;20479;-54
2022/10/25 12:36:31;;;;;;;6.97;1.48;;;19.70;99.90;;;;;;5128620;28;20011;-55
2022/10/25 12:39:00;;;;;;;7.53;2.05;;;19.50;99.90;;;;;;5125427;28;20019;-56
2022/10/25 12:41:33;;;;;;;7.72;1.63;;;19.50;99.90;;;;;;5125174;28;20022;-53
2022/10/25 12:44:13;;;;;;;8.43;2.33;;;19.80;99.90;;;;;;5127909;27;20042;-55
2022/10/25 12:47:16;;;;;;;6.13;1.00;;;19.60;99.90;;;;;;5126460;28;20026;-53
2022/10/25 12:50:04;;;;;;;9.73;2.30;;;19.10;99.90;;;;;;5127534;27;20023;-55
2022/10/25 12:52:40;;;;;;;7.03;1.52;;;19.30;99.90;;;;;;5128335;28;20103;-53
2022/10/25 12:55:24;;;;;;;5.47;1.35;;;19.80;99.90;;;;;;5120968;28;20020;-53
2022/10/25 12:57:49;;;;;;;8.60;1.13;;;19.80;99.90;;;;;;5122816;28;20031;-58
2022/10/25 13:00:20;;;;;;;8.82;1.33;;;19.50;99.90;;;;;;5128157;27;20019;-56
2022/10/25 13:02:55;;;;;;;10.68;1.30;;;19.30;99.90;;;;;;5129756;27;20027;-58
2022/10/25 13:05:21;;;;;;;7.90;1.55;;;19.00;99.90;;;;;;5131058;27;20317;-57
2022/10/25 13:07:48;;;;;;;4.97;1.60;;;18.80;99.90;;;;;;5128413;27;20486;-55